Date,TemperatureHighF,TemperatureAvgF,TemperatureLowF,DewpointHighF,DewpointAvgF,DewpointLowF,HumidityHigh,HumidityAvg,HumidityLow,PressureMaxIn,PressureMinIn,WindSpeedMaxMPH,WindSpeedAvgMPH,GustSpeedMaxMPH,PrecipitationSumIn
2013-4-1,80,68,56,44,39,29,57,37,16,30.03,29.88,21,10,22,0.00
2013-4-2,84,68,54,48,42,36,67,42,19,29.98,29.85,16,7,18,0.00
2013-4-3,90,74,56,49,40,31,61,33,13,30.01,29.90,13,4,14,0.00
2013-4-4,90,76,62,50,42,36,45,31,16,29.98,29.86,12,4,12,0.00
2013-4-5,86,74,63,47,41,34,50,33,16,29.96,29.82,17,7,18,0.00
2013-4-6,86,74,60,50,42,37,55,34,18,29.94,29.78,14,5,63,0.00
2013-4-7,87,75,60,52,45,36,66,37,18,29.86,29.65,14,5,16,0.00
2013-4-8,75,63,56,54,41,34,74,46,27,29.67,29.47,44,15,46,0.00
2013-4-9,76,64,52,41,32,20,58,34,13,29.91,29.67,21,10,23,0.00
2013-4-10,79,69,56,37,24,15,45,19,9,30.06,29.91,35,14,35,0.00
2013-4-11,89,73,55,33,23,16,40,17,7,29.95,29.67,24,10,24,0.00
2013-4-12,86,74,60,43,31,20,42,22,10,29.78,29.68,14,5,13,0.00
2013-4-13,92,76,58,51,39,24,60,30,9,29.79,29.65,21,10,24,0.00
2013-4-14,88,74,62,54,48,39,71,45,18,29.71,29.58,25,11,26,0.00
2013-4-15,82,70,60,54,46,37,78,46,26,29.76,29.65,18,7,20,0.00
2013-4-16,74,63,53,41,35,27,54,38,19,29.87,29.73,23,10,25,0.00
2013-4-17,75,63,50,40,26,10,61,30,8,30.07,29.87,22,11,23,0.00
2013-4-18,76,66,56,24,17,9,28,16,8,30.20,20.13,28,12,30,0.00
2013-4-19,83,70,51,33,20,8,34,17,7,30.16,29.92,14,6,17,0.00
2013-4-20,90,74,52,39,29,17,48,21,7,29.95,29.83,10,4,15,0.00
2013-4-21,95,77,58,49,27,12,44,19,5,29.98,29.83,17,7,18,0.00
2013-4-22,94,78,63,48,30,18,33,18,8,29.89,20.86,19,8,19,0.00
2013-4-23,90,76,64,52,30,10,62,24,6,29.87,29.72,23,8,24,0.00
2013-4-24,90,76,62,58,38,11,84,32,9,29.86,29.72,22,10,25,0.00
2013-4-25,82,71,60,49,42,36,63,37,20,29.98,29.75,17,8,17,0.00
2013-4-26,88,75,58,51,45,38,65,38,18,30.09,29.97,12,5,15,0.00
2013-4-27,97,80,62,55,40,25,53,28,8,30.03,29.84,14,5,16,0.00
2013-4-28,102,84,63,44,32,12,41,18,4,29.86,29.68,13,4,13,0.00
2013-4-29,102,85,68,49,33,17,33,17,5,29.74,29.60,13,6,15,0.00
2013-4-30,99,83,66,46,32,15,36,18,5,29.70,29.60,28,11,30,0.00